createdAt,value
2023-04-15T00:00:32.951Z,25.49
2023-04-15T00:02:33.228Z,25.47
2023-04-15T00:04:33.243Z,25.43
2023-04-15T00:06:33.023Z,25.47
2023-04-15T00:08:33.042Z,25.54
2023-04-15T00:10:33.004Z,25.52
2023-04-15T00:12:33.092Z,25.44
2023-04-15T00:14:33.067Z,25.39
2023-04-15T00:16:32.986Z,25.50
2023-04-15T00:18:33.061Z,25.50
2023-04-15T00:20:33.033Z,25.51
2023-04-15T00:22:33.079Z,25.51
2023-04-15T00:24:33.027Z,25.45
2023-04-15T00:26:33.140Z,25.50
2023-04-15T00:28:33.044Z,25.46
2023-04-15T00:30:33.116Z,25.53
2023-04-15T00:32:33.028Z,25.25
2023-04-15T00:34:33.079Z,25.56
2023-04-15T00:36:33.034Z,25.47
2023-04-15T00:38:33.091Z,25.51
2023-04-15T00:40:33.116Z,25.47
2023-04-15T00:42:33.060Z,25.52
2023-04-15T00:44:33.099Z,25.51
2023-04-15T00:46:33.087Z,25.46
2023-04-15T00:48:33.120Z,25.51
2023-04-15T00:50:33.009Z,25.46
2023-04-15T00:52:33.032Z,25.49
2023-04-15T00:54:33.127Z,25.49
2023-04-15T00:56:33.108Z,25.52
2023-04-15T00:58:33.158Z,25.47
2023-04-15T01:00:33.131Z,25.51
2023-04-15T01:02:33.334Z,25.44
2023-04-15T01:04:33.180Z,25.51
2023-04-15T01:06:33.098Z,25.47
2023-04-15T01:08:33.143Z,25.47
2023-04-15T01:10:33.101Z,25.52
2023-04-15T01:12:33.201Z,25.47
2023-04-15T01:14:33.196Z,25.52
2023-04-15T01:16:33.211Z,25.52
2023-04-15T01:18:33.179Z,25.45
2023-04-15T01:20:33.154Z,25.43
2023-04-15T01:22:33.133Z,25.52
2023-04-15T01:24:33.146Z,25.45
2023-04-15T01:26:33.092Z,25.45
2023-04-15T01:28:33.137Z,25.44
2023-04-15T01:30:33.117Z,25.50
2023-04-15T01:32:33.127Z,25.54
2023-04-15T01:34:35.648Z,25.49
2023-04-15T01:36:33.146Z,25.50
2023-04-15T01:38:33.151Z,25.45
2023-04-15T01:40:33.198Z,25.52
2023-04-15T01:42:33.160Z,25.49
2023-04-15T01:44:33.168Z,25.47
2023-04-15T01:46:33.145Z,25.47
2023-04-15T01:48:33.122Z,25.52
2023-04-15T01:50:33.137Z,25.49
2023-04-15T01:52:33.212Z,25.52
2023-04-15T01:54:33.198Z,25.29
2023-04-15T01:56:33.193Z,25.44
2023-04-15T01:58:33.177Z,25.52
2023-04-15T02:00:33.187Z,24.66
2023-04-15T02:02:33.251Z,24.43
2023-04-15T02:04:33.170Z,24.21
2023-04-15T02:06:33.203Z,24.04
2023-04-15T02:08:33.155Z,23.87
2023-04-15T02:10:33.202Z,23.73
2023-04-15T02:12:33.219Z,23.59
2023-04-15T02:14:33.203Z,23.55
2023-04-15T02:16:33.235Z,23.54
2023-04-15T02:18:33.222Z,23.53
2023-04-15T02:20:33.218Z,23.51
2023-04-15T02:22:33.221Z,23.53
2023-04-15T02:24:34.208Z,23.55
2023-04-15T02:26:33.158Z,23.45
2023-04-15T02:28:33.208Z,23.43
2023-04-15T02:30:33.142Z,23.57
2023-04-15T02:32:33.229Z,23.43
2023-04-15T02:34:33.241Z,23.47
2023-04-15T02:36:33.134Z,23.47
2023-04-15T02:38:33.278Z,23.41
2023-04-15T02:40:33.253Z,23.45
2023-04-15T02:42:33.186Z,23.42
2023-04-15T02:44:33.241Z,23.40
2023-04-15T02:46:33.264Z,23.48
2023-04-15T02:48:33.257Z,23.42
2023-04-15T02:50:33.309Z,23.42
2023-04-15T02:52:33.209Z,23.41
2023-04-15T02:54:33.257Z,23.39
2023-04-15T02:56:33.219Z,23.44
2023-04-15T02:58:33.243Z,23.42
2023-04-15T03:00:33.199Z,23.40
2023-04-15T03:02:33.374Z,23.50
2023-04-15T03:04:33.272Z,23.47
2023-04-15T03:06:33.236Z,23.47
2023-04-15T03:08:33.260Z,23.39
2023-04-15T03:10:33.219Z,23.42
2023-04-15T03:12:33.178Z,23.43
2023-04-15T03:14:33.232Z,23.43
2023-04-15T03:16:33.273Z,23.41
2023-04-15T03:18:33.307Z,23.48
2023-04-15T03:20:33.277Z,23.41
2023-04-15T03:22:33.285Z,23.40
2023-04-15T03:24:33.263Z,23.42
2023-04-15T03:26:33.264Z,23.36
2023-04-15T03:28:33.272Z,23.42
2023-04-15T03:30:33.330Z,23.39
2023-04-15T03:32:33.300Z,23.39
2023-04-15T03:34:33.280Z,23.19
2023-04-15T03:36:33.207Z,23.31
2023-04-15T03:38:33.382Z,23.29
2023-04-15T03:40:33.293Z,23.29
2023-04-15T03:42:33.223Z,23.27
2023-04-15T03:44:33.298Z,23.30
2023-04-15T03:46:33.348Z,23.27
2023-04-15T03:48:33.256Z,23.26
2023-04-15T03:50:33.311Z,23.26
2023-04-15T03:52:33.342Z,23.31
2023-04-15T03:54:33.275Z,23.38
2023-04-15T03:56:33.350Z,23.27
2023-04-15T03:58:33.294Z,23.27
2023-04-15T04:00:33.334Z,23.04
2023-04-15T04:02:33.454Z,23.05
2023-04-15T04:04:33.319Z,23.02
2023-04-15T04:06:33.272Z,23.06
2023-04-15T04:08:33.326Z,23.10
2023-04-15T04:10:33.283Z,23.04
2023-04-15T04:12:33.322Z,23.12
2023-04-15T04:14:33.357Z,23.06
2023-04-15T04:16:33.392Z,23.08
2023-04-15T04:18:33.291Z,23.08
2023-04-15T04:20:33.314Z,23.09
2023-04-15T04:22:33.306Z,23.03
2023-04-15T04:24:33.259Z,23.08
2023-04-15T04:26:33.302Z,23.05
2023-04-15T04:28:33.281Z,23.01
2023-04-15T04:30:33.368Z,23.06
2023-04-15T04:32:33.317Z,23.17
2023-04-15T04:34:33.378Z,23.13
2023-04-15T04:36:33.337Z,23.25
2023-04-15T04:38:33.276Z,23.18
2023-04-15T04:40:33.349Z,23.23
2023-04-15T04:42:33.313Z,23.16
2023-04-15T04:44:33.334Z,23.16
2023-04-15T04:46:33.387Z,23.15
2023-04-15T04:48:33.270Z,23.17
2023-04-15T04:50:33.243Z,23.15
2023-04-15T04:52:33.312Z,22.02
2023-04-15T04:54:33.283Z,23.11
2023-04-15T04:56:33.387Z,23.07
2023-04-15T04:58:33.346Z,23.13
2023-04-15T05:00:33.329Z,23.06
2023-04-15T05:02:33.511Z,23.04
2023-04-15T05:04:33.375Z,23.08
2023-04-15T05:06:33.381Z,23.19
2023-04-15T05:08:33.359Z,23.10
2023-04-15T05:10:33.329Z,23.09
2023-04-15T05:12:33.374Z,23.01
2023-04-15T05:14:33.434Z,23.11
2023-04-15T05:16:33.407Z,23.05
2023-04-15T05:18:33.502Z,23.10
2023-04-15T05:20:33.458Z,23.25
2023-04-15T05:22:33.335Z,23.15
2023-04-15T05:24:33.415Z,23.04
2023-04-15T05:26:33.436Z,23.06
2023-04-15T05:28:33.355Z,23.13
2023-04-15T05:30:33.400Z,23.11
2023-04-15T05:32:33.477Z,22.95
2023-04-15T05:34:33.420Z,23.06
2023-04-15T05:36:33.420Z,23.23
2023-04-15T05:38:33.402Z,23.13
2023-04-15T05:40:33.372Z,23.25
2023-04-15T05:42:33.456Z,23.25
2023-04-15T05:44:33.389Z,23.29
2023-04-15T05:46:33.412Z,23.29
2023-04-15T05:48:33.367Z,23.42
2023-04-15T05:50:33.333Z,23.41
2023-04-15T05:52:33.317Z,23.54
2023-04-15T05:54:33.557Z,23.50
2023-04-15T05:56:33.459Z,23.59
2023-04-15T05:58:33.454Z,23.54
2023-04-15T06:00:33.437Z,23.61
2023-04-15T06:02:33.577Z,23.61
2023-04-15T06:04:33.569Z,23.56
2023-04-15T06:06:33.390Z,23.70
2023-04-15T06:08:33.539Z,23.70
2023-04-15T06:10:33.380Z,23.75
2023-04-15T06:12:33.467Z,23.84
2023-04-15T06:14:33.346Z,23.89
2023-04-15T06:16:33.401Z,23.98
2023-04-15T06:18:33.385Z,24.00
2023-04-15T06:20:33.396Z,24.04
2023-04-15T06:22:33.514Z,24.12
2023-04-15T06:24:33.450Z,24.21
2023-04-15T06:26:33.406Z,24.37
2023-04-15T06:28:33.514Z,24.32
2023-04-15T06:30:33.424Z,24.39
2023-04-15T06:32:33.467Z,24.43
2023-04-15T06:34:33.441Z,24.48
2023-04-15T06:36:33.518Z,24.50
2023-04-15T06:38:33.505Z,24.52
2023-04-15T06:40:33.401Z,24.48
2023-04-15T06:42:33.474Z,24.62
2023-04-15T06:44:33.994Z,24.54
2023-04-15T06:46:33.404Z,24.62
2023-04-15T06:48:33.502Z,24.54
2023-04-15T06:50:33.503Z,24.55
2023-04-15T06:52:33.452Z,24.53
2023-04-15T06:54:33.496Z,24.61
2023-04-15T06:56:33.446Z,24.66
2023-04-15T06:58:33.426Z,24.66
2023-04-15T07:00:33.469Z,24.58
2023-04-15T07:02:33.640Z,24.66
2023-04-15T07:04:33.684Z,24.69
2023-04-15T07:06:33.535Z,24.83
2023-04-15T07:08:33.523Z,24.77
2023-04-15T07:10:33.443Z,24.86
2023-04-15T07:12:33.548Z,24.89
2023-04-15T07:14:33.482Z,24.92
2023-04-15T07:16:33.513Z,24.95
2023-04-15T07:18:33.532Z,24.95
2023-04-15T07:20:33.556Z,24.93
2023-04-15T07:22:33.540Z,24.66
2023-04-15T07:24:33.534Z,24.99
2023-04-15T07:26:33.473Z,25.07
2023-04-15T07:28:33.539Z,25.01
2023-04-15T07:30:33.582Z,25.09
2023-04-15T07:32:33.562Z,25.10
2023-04-15T07:34:33.549Z,25.08
2023-04-15T07:36:33.574Z,25.15
2023-04-15T07:38:33.589Z,25.18
2023-04-15T07:40:33.525Z,25.06
2023-04-15T07:42:33.440Z,25.12
2023-04-15T07:44:33.501Z,25.19
2023-04-15T07:46:33.591Z,25.29
2023-04-15T07:48:34.484Z,25.42
2023-04-15T07:50:33.508Z,25.49
2023-04-15T07:52:33.552Z,25.83
2023-04-15T07:54:33.643Z,25.97
2023-04-15T07:56:33.508Z,26.13
2023-04-15T07:58:33.546Z,26.31
2023-04-15T08:00:33.536Z,25.18
2023-04-15T08:02:33.716Z,25.52
2023-04-15T08:04:33.761Z,25.52
2023-04-15T08:06:33.568Z,24.89
2023-04-15T08:08:33.411Z,24.93
2023-04-15T08:10:33.571Z,24.90
2023-04-15T08:12:33.572Z,24.90
2023-04-15T08:14:33.558Z,25.09
2023-04-15T08:16:33.670Z,26.25
2023-04-15T08:18:33.615Z,25.14
2023-04-15T08:20:33.527Z,25.47
2023-04-15T08:22:33.554Z,25.22
2023-04-15T08:24:33.526Z,25.58
2023-04-15T08:26:33.499Z,25.40
2023-04-15T08:28:33.467Z,25.49
2023-04-15T08:30:33.501Z,25.93
2023-04-15T08:32:33.574Z,26.17
2023-04-15T08:34:33.593Z,24.98
2023-04-15T08:36:33.519Z,25.83
2023-04-15T08:38:33.638Z,25.17
2023-04-15T08:40:33.706Z,25.65
2023-04-15T08:42:33.568Z,24.87
2023-04-15T08:44:33.558Z,24.90
2023-04-15T08:46:33.640Z,24.92
2023-04-15T08:48:33.580Z,25.26
2023-04-15T08:50:33.634Z,24.93
2023-04-15T08:52:33.648Z,24.80
2023-04-15T08:54:33.607Z,24.83
2023-04-15T08:56:33.679Z,24.89
2023-04-15T08:58:33.624Z,24.95
2023-04-15T09:00:33.550Z,25.98
2023-04-15T09:02:33.629Z,24.96
2023-04-15T09:04:33.641Z,26.22
2023-04-15T09:06:33.693Z,24.93
2023-04-15T09:08:33.554Z,24.95
2023-04-15T09:10:33.591Z,24.90
2023-04-15T09:12:33.636Z,25.23
2023-04-15T09:14:33.628Z,25.29
2023-04-15T09:16:33.725Z,25.36
2023-04-15T09:18:33.585Z,26.37
2023-04-15T09:20:33.561Z,25.07
2023-04-15T09:22:33.587Z,25.23
2023-04-15T09:24:33.598Z,25.22
2023-04-15T09:26:33.699Z,25.28
2023-04-15T09:28:33.704Z,25.28
2023-04-15T09:30:33.679Z,25.20
2023-04-15T09:32:33.599Z,25.31
2023-04-15T09:34:33.580Z,25.47
2023-04-15T09:36:33.642Z,24.85
2023-04-15T09:38:33.647Z,25.13
2023-04-15T09:40:33.674Z,25.23
2023-04-15T09:42:33.682Z,25.03
2023-04-15T09:44:33.670Z,24.97
2023-04-15T09:46:33.687Z,25.24
2023-04-15T09:48:33.743Z,25.29
2023-04-15T09:50:33.687Z,25.32
2023-04-15T09:52:33.664Z,25.32
2023-04-15T09:54:33.691Z,25.32
2023-04-15T09:56:33.694Z,25.24
2023-04-15T09:58:33.730Z,25.31
2023-04-15T10:00:33.651Z,24.96
2023-04-15T10:02:33.661Z,24.83
2023-04-15T10:04:33.702Z,24.87
2023-04-15T10:06:33.686Z,24.74
2023-04-15T10:08:33.713Z,24.94
2023-04-15T10:10:33.751Z,25.04
2023-04-15T10:12:33.704Z,24.86
2023-04-15T10:14:33.744Z,24.83
2023-04-15T10:16:33.801Z,24.85
2023-04-15T10:18:33.696Z,24.92
2023-04-15T10:20:33.690Z,26.64
2023-04-15T10:22:33.777Z,24.82
2023-04-15T10:24:33.615Z,24.96
2023-04-15T10:26:33.691Z,24.82
2023-04-15T10:28:33.768Z,24.98
2023-04-15T10:30:33.617Z,24.97
2023-04-15T10:32:33.693Z,24.82
2023-04-15T10:34:33.643Z,24.95
2023-04-15T10:36:33.785Z,24.92
2023-04-15T10:38:33.738Z,25.35
2023-04-15T10:40:33.709Z,24.90
2023-04-15T10:42:33.726Z,25.33
2023-04-15T10:44:33.666Z,25.26
2023-04-15T10:46:33.750Z,24.92
2023-04-15T10:48:33.707Z,25.81
2023-04-15T10:50:33.678Z,24.93
2023-04-15T10:52:33.789Z,24.85
2023-04-15T10:54:33.735Z,24.94
2023-04-15T10:56:33.800Z,24.98
2023-04-15T10:58:33.710Z,25.01
2023-04-15T11:00:33.675Z,25.21
2023-04-15T11:02:33.934Z,25.29
2023-04-15T11:04:33.851Z,25.22
2023-04-15T11:06:33.826Z,25.35
2023-04-15T11:08:33.744Z,25.26
2023-04-15T11:10:33.754Z,25.23
2023-04-15T11:12:33.762Z,25.07
2023-04-15T11:14:33.793Z,25.38
2023-04-15T11:16:33.772Z,25.29
2023-04-15T11:18:33.759Z,25.20
2023-04-15T11:20:33.748Z,26.74
2023-04-15T11:22:33.847Z,24.99
2023-04-15T11:24:33.728Z,26.87
2023-04-15T11:26:33.731Z,25.23
2023-04-15T11:28:33.793Z,25.29
2023-04-15T11:30:33.785Z,25.24
2023-04-15T11:32:33.829Z,25.21
2023-04-15T11:34:36.079Z,25.24
2023-04-15T11:36:33.803Z,25.23
2023-04-15T11:38:33.850Z,25.17
2023-04-15T11:40:33.776Z,25.00
2023-04-15T11:42:48.749Z,25.19
2023-04-15T11:44:33.787Z,25.22
2023-04-15T11:46:33.830Z,25.10
2023-04-15T11:48:33.822Z,25.03
2023-04-15T11:50:33.833Z,25.01
2023-04-15T11:52:33.867Z,24.97
2023-04-15T11:54:33.886Z,25.30
2023-04-15T11:56:33.714Z,25.21
2023-04-15T11:58:33.804Z,25.04
2023-04-15T12:00:33.757Z,25.28
2023-04-15T12:02:33.945Z,25.19
2023-04-15T12:04:33.968Z,25.26
2023-04-15T12:06:33.784Z,25.33
2023-04-15T12:08:33.714Z,25.23
2023-04-15T12:10:33.855Z,25.36
2023-04-15T12:12:33.820Z,25.37
2023-04-15T12:14:33.765Z,25.25
2023-04-15T12:16:35.226Z,25.29
2023-04-15T12:18:34.882Z,25.23
2023-04-15T12:20:33.820Z,25.17
2023-04-15T12:22:33.738Z,24.61
2023-04-15T12:24:33.828Z,24.43
2023-04-15T12:26:33.910Z,24.62
2023-04-15T12:28:33.871Z,24.86
2023-04-15T12:30:33.688Z,25.13
2023-04-15T12:32:33.865Z,25.23
2023-04-15T12:34:33.874Z,25.28
2023-04-15T12:36:33.777Z,25.37
2023-04-15T12:38:33.849Z,25.28
2023-04-15T12:40:33.893Z,25.31
2023-04-15T12:42:33.817Z,25.35
2023-04-15T12:44:33.845Z,24.65
2023-04-15T12:46:33.895Z,25.37
2023-04-15T12:48:33.891Z,25.29
2023-04-15T12:50:33.895Z,25.37
2023-04-15T12:52:33.937Z,25.37
2023-04-15T12:54:33.911Z,25.36
2023-04-15T12:56:33.853Z,25.47
2023-04-15T12:58:33.709Z,25.33
2023-04-15T13:00:33.828Z,25.34
2023-04-15T13:02:34.104Z,25.35
2023-04-15T13:04:33.830Z,25.25
2023-04-15T13:06:33.894Z,25.33
2023-04-15T13:08:33.715Z,23.53
2023-04-15T13:10:33.869Z,25.14
2023-04-15T13:12:33.921Z,25.09
2023-04-15T13:14:33.865Z,25.00
2023-04-15T13:16:34.050Z,24.95
2023-04-15T13:18:33.939Z,25.09
2023-04-15T13:20:33.877Z,25.09
2023-04-15T13:22:33.939Z,25.22
2023-04-15T13:24:33.802Z,25.23
2023-04-15T13:26:33.875Z,25.25
2023-04-15T13:28:34.030Z,25.10
2023-04-15T13:30:33.820Z,25.06
2023-04-15T13:32:34.020Z,25.07
2023-04-15T13:34:33.921Z,25.00
2023-04-15T13:36:33.810Z,25.13
2023-04-15T13:38:33.827Z,25.12
2023-04-15T13:40:33.763Z,25.04
2023-04-15T13:42:33.788Z,25.09
2023-04-15T13:44:34.036Z,25.03
2023-04-15T13:46:33.728Z,24.95
2023-04-15T13:48:33.870Z,24.95
2023-04-15T13:50:33.931Z,24.99
2023-04-15T13:52:33.935Z,25.00
2023-04-15T13:54:37.717Z,24.96
2023-04-15T13:56:33.879Z,25.01
2023-04-15T13:58:33.940Z,25.10
2023-04-15T14:00:33.958Z,25.11
2023-04-15T14:02:34.078Z,25.09
2023-04-15T14:04:34.049Z,25.08
2023-04-15T14:06:33.995Z,25.20
2023-04-15T14:08:33.933Z,25.32
2023-04-15T14:10:34.032Z,25.40
2023-04-15T14:12:33.968Z,25.32
2023-04-15T14:14:33.931Z,25.35
2023-04-15T14:16:33.962Z,25.38
2023-04-15T14:18:33.939Z,25.28
2023-04-15T14:20:33.936Z,25.21
2023-04-15T14:22:33.977Z,25.13
2023-04-15T14:24:34.005Z,25.18
2023-04-15T14:26:34.034Z,24.98
2023-04-15T14:28:33.908Z,25.05
2023-04-15T14:30:33.991Z,24.95
2023-04-15T14:32:34.001Z,24.98
2023-04-15T14:34:33.942Z,25.10
2023-04-15T14:36:33.877Z,25.01
2023-04-15T14:38:33.911Z,25.08
2023-04-15T14:40:34.025Z,25.03
2023-04-15T14:42:33.943Z,24.94
2023-04-15T14:44:33.993Z,24.94
2023-04-15T14:46:34.128Z,24.70
2023-04-15T14:48:33.907Z,24.51
2023-04-15T14:50:33.955Z,24.57
2023-04-15T14:52:33.971Z,24.90
2023-04-15T14:54:34.016Z,24.82
2023-04-15T14:56:33.990Z,25.19
2023-04-15T14:58:33.851Z,25.19
2023-04-15T15:00:33.976Z,24.65
2023-04-15T15:02:39.081Z,24.35
2023-04-15T15:04:34.138Z,24.26
2023-04-15T15:06:33.993Z,24.12
2023-04-15T15:08:33.969Z,24.09
2023-04-15T15:10:48.411Z,23.96
2023-04-15T15:12:33.933Z,23.90
2023-04-15T15:14:33.957Z,23.86
2023-04-15T15:16:34.113Z,23.81
2023-04-15T15:18:34.184Z,23.69
2023-04-15T15:20:33.996Z,23.68
2023-04-15T15:22:33.980Z,23.77
2023-04-15T15:24:34.073Z,23.67
2023-04-15T15:26:34.030Z,23.75
2023-04-15T15:28:33.924Z,23.76
2023-04-15T15:30:34.011Z,23.73
2023-04-15T15:32:34.082Z,23.75
2023-04-15T15:34:34.032Z,23.68
2023-04-15T15:36:34.046Z,23.66
2023-04-15T15:38:34.042Z,23.82
2023-04-15T15:40:34.028Z,23.81
2023-04-15T15:42:34.018Z,23.94
2023-04-15T15:44:34.686Z,24.06
2023-04-15T15:46:34.081Z,24.10
2023-04-15T15:48:34.152Z,24.10
2023-04-15T15:50:33.938Z,23.96
2023-04-15T15:52:34.049Z,24.00
2023-04-15T15:54:34.083Z,23.79
2023-04-15T15:56:34.007Z,23.76
2023-04-15T15:58:34.201Z,23.72
2023-04-15T16:00:34.109Z,23.59
2023-04-15T16:02:59.640Z,23.58
2023-04-15T16:04:34.358Z,23.54
2023-04-15T16:06:35.345Z,23.54
2023-04-15T16:08:34.000Z,23.50
2023-04-15T16:10:34.044Z,23.54
2023-04-15T16:12:35.057Z,23.49
2023-04-15T16:14:33.989Z,23.48
2023-04-15T16:16:34.182Z,23.25
2023-04-15T16:18:35.354Z,23.18
2023-04-15T16:20:34.112Z,23.08
2023-04-15T16:22:34.053Z,23.06
2023-04-15T16:24:34.982Z,22.99
2023-04-15T16:26:34.096Z,23.28
2023-04-15T16:28:34.091Z,23.34
2023-04-15T16:30:34.053Z,23.36
2023-04-15T16:32:34.116Z,23.40
2023-04-15T16:34:34.059Z,23.29
2023-04-15T16:36:34.082Z,23.38
2023-04-15T16:38:34.120Z,23.52
2023-04-15T16:40:34.056Z,23.47
2023-04-15T16:42:34.155Z,23.13
2023-04-15T16:44:34.017Z,23.52
2023-04-15T16:46:34.156Z,23.50
2023-04-15T16:48:34.118Z,23.43
2023-04-15T16:50:34.074Z,23.52
2023-04-15T16:52:34.088Z,23.50
2023-04-15T16:54:34.038Z,23.31
2023-04-15T16:56:34.047Z,23.45
2023-04-15T16:58:34.070Z,23.47
2023-04-15T17:00:34.109Z,23.27
2023-04-15T17:02:34.173Z,23.37
2023-04-15T17:04:34.208Z,23.39
2023-04-15T17:06:34.113Z,23.39
2023-04-15T17:08:34.100Z,23.39
2023-04-15T17:10:34.112Z,23.39
2023-04-15T17:12:34.158Z,23.41
2023-04-15T17:14:34.107Z,23.33
2023-04-15T17:16:34.038Z,23.39
2023-04-15T17:18:34.115Z,23.40
2023-04-15T17:20:34.131Z,23.34
2023-04-15T17:22:34.175Z,23.43
2023-04-15T17:24:34.154Z,23.45
2023-04-15T17:26:34.098Z,23.37
2023-04-15T17:28:34.135Z,23.31
2023-04-15T17:30:34.178Z,23.29
2023-04-15T17:32:34.198Z,23.37
2023-04-15T17:34:50.171Z,23.38
2023-04-15T17:36:34.142Z,23.26
2023-04-15T17:38:34.123Z,23.30
2023-04-15T17:40:34.183Z,23.37
2023-04-15T17:42:34.331Z,23.34
2023-04-15T17:44:34.266Z,23.25
2023-04-15T17:46:34.166Z,23.34
2023-04-15T17:48:34.188Z,23.39
2023-04-15T17:50:34.207Z,23.41
2023-04-15T17:52:34.202Z,23.38
2023-04-15T17:54:34.173Z,23.34
2023-04-15T17:56:34.108Z,23.34
2023-04-15T17:58:34.182Z,23.34
2023-04-15T18:00:34.150Z,23.43
2023-04-15T18:02:36.987Z,23.47
2023-04-15T18:04:34.356Z,23.56
2023-04-15T18:06:34.227Z,23.49
2023-04-15T18:08:34.158Z,23.53
2023-04-15T18:10:34.140Z,23.61
2023-04-15T18:12:34.186Z,23.59
2023-04-15T18:14:35.131Z,23.53
2023-04-15T18:16:34.312Z,23.55
2023-04-15T18:18:34.132Z,23.63
2023-04-15T18:20:34.232Z,23.50
2023-04-15T18:22:34.075Z,23.53
2023-04-15T18:24:34.164Z,23.53
2023-04-15T18:26:34.186Z,23.54
2023-04-15T18:28:34.132Z,23.52
2023-04-15T18:30:34.238Z,23.53
2023-04-15T18:32:34.236Z,23.50
2023-04-15T18:34:34.149Z,23.53
2023-04-15T18:36:34.218Z,26.65
2023-04-15T18:38:34.181Z,26.91
2023-04-15T18:40:34.100Z,26.93
2023-04-15T18:42:34.176Z,27.06
2023-04-15T18:44:34.120Z,26.98
2023-04-15T18:46:34.251Z,27.06
2023-04-15T18:48:34.382Z,27.01
2023-04-15T18:50:34.222Z,27.01
2023-04-15T18:52:34.179Z,27.10
2023-04-15T18:54:34.128Z,27.03
2023-04-15T18:56:34.166Z,27.07
2023-04-15T18:59:27.092Z,27.09
2023-04-15T19:00:34.172Z,26.97
2023-04-15T19:02:34.391Z,25.45
2023-04-15T19:04:34.277Z,25.37
2023-04-15T19:06:34.393Z,25.40
2023-04-15T19:08:34.243Z,25.14
2023-04-15T19:10:34.198Z,25.43
2023-04-15T19:12:34.235Z,25.42
2023-04-15T19:14:34.209Z,25.42
2023-04-15T19:16:34.280Z,25.42
2023-04-15T19:18:34.250Z,25.41
2023-04-15T19:20:37.849Z,25.39
2023-04-15T19:22:34.341Z,25.40
2023-04-15T19:24:34.278Z,25.37
2023-04-15T19:26:34.289Z,25.40
2023-04-15T19:28:34.300Z,25.41
2023-04-15T19:30:34.350Z,25.50
2023-04-15T19:32:34.358Z,25.38
2023-04-15T19:34:34.260Z,25.36
2023-04-15T19:36:34.313Z,25.38
2023-04-15T19:38:34.280Z,25.39
2023-04-15T19:40:34.160Z,25.37
2023-04-15T19:42:34.239Z,25.36
2023-04-15T19:44:34.247Z,25.37
2023-04-15T19:46:34.326Z,25.42
2023-04-15T19:48:34.330Z,25.43
2023-04-15T19:50:34.158Z,25.37
2023-04-15T19:52:34.308Z,25.40
2023-04-15T19:54:34.308Z,25.38
2023-04-15T19:56:34.531Z,25.49
2023-04-15T19:58:34.284Z,25.40
2023-04-15T20:00:34.398Z,25.37
2023-04-15T20:02:34.369Z,25.38
2023-04-15T20:04:34.379Z,25.50
2023-04-15T20:06:34.261Z,25.36
2023-04-15T20:08:34.248Z,25.43
2023-04-15T20:10:34.359Z,25.40
2023-04-15T20:12:51.039Z,25.39
2023-04-15T20:14:34.321Z,25.49
2023-04-15T20:16:34.350Z,25.39
2023-04-15T20:18:34.320Z,25.45
2023-04-15T20:20:34.285Z,25.47
2023-04-15T20:22:34.394Z,25.42
2023-04-15T20:24:34.330Z,25.38
2023-04-15T20:26:34.165Z,25.44
2023-04-15T20:28:34.366Z,25.40
2023-04-15T20:30:34.310Z,25.51
2023-04-15T20:32:34.266Z,25.42
2023-04-15T20:34:34.347Z,25.45
2023-04-15T20:36:34.309Z,25.47
2023-04-15T20:38:34.361Z,25.44
2023-04-15T20:40:34.353Z,25.44
2023-04-15T20:42:34.270Z,25.47
2023-04-15T20:44:34.300Z,25.50
2023-04-15T20:46:34.465Z,25.44
2023-04-15T20:48:34.310Z,25.40
2023-04-15T20:50:34.217Z,25.43
2023-04-15T20:52:34.374Z,25.46
2023-04-15T20:54:34.341Z,25.43
2023-04-15T20:56:34.285Z,25.44
2023-04-15T20:58:34.323Z,25.51
2023-04-15T21:00:34.208Z,25.42
2023-04-15T21:02:34.536Z,25.42
2023-04-15T21:04:34.472Z,25.47
2023-04-15T21:06:34.405Z,25.36
2023-04-15T21:08:34.404Z,25.40
2023-04-15T21:10:34.338Z,25.39
2023-04-15T21:12:34.334Z,25.37
2023-04-15T21:14:34.434Z,25.37
2023-04-15T21:16:34.424Z,25.37
2023-04-15T21:18:34.449Z,25.37
2023-04-15T21:20:34.420Z,25.33
2023-04-15T21:22:34.331Z,25.44
2023-04-15T21:24:34.502Z,25.38
2023-04-15T21:26:34.336Z,25.35
2023-04-15T21:28:34.392Z,25.45
2023-04-15T21:30:34.317Z,25.52
2023-04-15T21:32:34.328Z,25.47
2023-04-15T21:34:34.468Z,25.52
2023-04-15T21:36:34.398Z,25.47
2023-04-15T21:38:34.440Z,25.46
2023-04-15T21:40:34.341Z,25.40
2023-04-15T21:42:34.555Z,25.45
2023-04-15T21:44:34.428Z,25.44
2023-04-15T21:46:35.780Z,25.40
2023-04-15T21:48:34.378Z,25.51
2023-04-15T21:50:34.355Z,25.46
2023-04-15T21:52:34.515Z,25.43
2023-04-15T21:54:34.370Z,25.50
2023-04-15T21:56:34.469Z,25.47
2023-04-15T21:58:34.364Z,25.45
2023-04-15T22:00:34.490Z,25.42
2023-04-15T22:02:34.588Z,25.50
2023-04-15T22:04:34.431Z,25.50
2023-04-15T22:06:34.466Z,25.45
2023-04-15T22:08:44.559Z,25.53
2023-04-15T22:10:34.462Z,25.41
2023-04-15T22:12:34.405Z,25.46
2023-04-15T22:14:34.444Z,25.46
2023-04-15T22:16:34.460Z,25.40
2023-04-15T22:18:34.406Z,25.49
2023-04-15T22:20:34.479Z,25.42
2023-04-15T22:22:43.926Z,25.35
2023-04-15T22:24:40.050Z,25.40
2023-04-15T22:26:34.438Z,25.44
2023-04-15T22:28:34.395Z,25.46
2023-04-15T22:30:34.461Z,25.44
2023-04-15T22:32:34.493Z,25.52
2023-04-15T22:34:34.418Z,25.47
2023-04-15T22:36:34.493Z,25.47
2023-04-15T22:38:34.443Z,25.49
2023-04-15T22:40:34.447Z,25.39
2023-04-15T22:42:34.358Z,25.43
2023-04-15T22:44:34.433Z,25.52
2023-04-15T22:46:34.533Z,25.52
2023-04-15T22:48:34.486Z,25.47
2023-04-15T22:50:34.431Z,25.46
2023-04-15T22:52:34.412Z,25.51
2023-04-15T22:54:34.370Z,25.44
2023-04-15T22:56:34.475Z,25.53
2023-04-15T22:58:34.417Z,25.40
2023-04-15T23:00:34.515Z,25.39
2023-04-15T23:02:34.713Z,25.41
2023-04-15T23:04:34.529Z,25.52
2023-04-15T23:06:34.529Z,25.45
2023-04-15T23:08:34.518Z,25.44
2023-04-15T23:10:34.499Z,25.45
2023-04-15T23:12:34.381Z,25.43
2023-04-15T23:14:34.525Z,25.51
2023-04-15T23:16:34.566Z,25.43
2023-04-15T23:18:34.625Z,25.43
2023-04-15T23:20:34.598Z,25.52
2023-04-15T23:22:34.512Z,25.47
2023-04-15T23:24:34.470Z,25.50
2023-04-15T23:26:34.546Z,25.39
2023-04-15T23:28:34.536Z,25.44
2023-04-15T23:30:34.491Z,25.21
2023-04-15T23:32:34.571Z,25.44
2023-04-15T23:34:34.514Z,25.42
2023-04-15T23:36:34.534Z,25.51
2023-04-15T23:38:34.508Z,25.47
2023-04-15T23:40:34.458Z,25.47
2023-04-15T23:42:34.473Z,25.40
2023-04-15T23:44:34.557Z,25.46
2023-04-15T23:46:34.592Z,25.39
2023-04-15T23:48:34.509Z,25.49
2023-04-15T23:50:34.551Z,25.43
2023-04-15T23:52:34.526Z,25.39
2023-04-15T23:54:34.559Z,25.50
2023-04-15T23:56:34.614Z,25.37
2023-04-15T23:58:34.741Z,25.33
